sensor_id;sensor_type;location;lat;lon;timestamp;P1;durP1;ratioP1;P2;durP2;ratioP2
54865;SDS011;40754;52.094;4.328;2023-06-26T00:01:00;8.68;;;5.63;;
54865;SDS011;40754;52.094;4.328;2023-06-26T00:03:35;9.57;;;5.25;;
54865;SDS011;40754;52.094;4.328;2023-06-26T00:06:33;9.27;;;5.43;;
54865;SDS011;40754;52.094;4.328;2023-06-26T00:09:09;11.68;;;5.45;;
54865;SDS011;40754;52.094;4.328;2023-06-26T00:11:35;9.02;;;5.35;;
54865;SDS011;40754;52.094;4.328;2023-06-26T00:14:01;7.72;;;4.07;;
54865;SDS011;40754;52.094;4.328;2023-06-26T00:16:30;11.40;;;5.00;;
54865;SDS011;40754;52.094;4.328;2023-06-26T00:18:59;14.15;;;4.90;;
54865;SDS011;40754;52.094;4.328;2023-06-26T00:21:36;12.02;;;4.85;;
54865;SDS011;40754;52.094;4.328;2023-06-26T00:24:16;14.52;;;5.07;;
54865;SDS011;40754;52.094;4.328;2023-06-26T00:26:42;16.45;;;4.70;;
54865;SDS011;40754;52.094;4.328;2023-06-26T00:29:08;13.65;;;5.40;;
54865;SDS011;40754;52.094;4.328;2023-06-26T00:31:35;11.25;;;4.85;;
54865;SDS011;40754;52.094;4.328;2023-06-26T00:34:03;11.93;;;4.60;;
54865;SDS011;40754;52.094;4.328;2023-06-26T00:36:28;14.07;;;5.20;;
54865;SDS011;40754;52.094;4.328;2023-06-26T00:38:54;13.50;;;5.03;;
54865;SDS011;40754;52.094;4.328;2023-06-26T00:41:20;13.27;;;4.88;;
54865;SDS011;40754;52.094;4.328;2023-06-26T00:43:45;13.77;;;4.80;;
54865;SDS011;40754;52.094;4.328;2023-06-26T00:46:14;14.35;;;4.72;;
54865;SDS011;40754;52.094;4.328;2023-06-26T00:48:41;9.98;;;4.95;;
54865;SDS011;40754;52.094;4.328;2023-06-26T00:51:11;15.45;;;5.22;;
54865;SDS011;40754;52.094;4.328;2023-06-26T00:53:37;13.43;;;5.13;;
54865;SDS011;40754;52.094;4.328;2023-06-26T00:56:02;10.88;;;4.82;;
54865;SDS011;40754;52.094;4.328;2023-06-26T00:58:28;13.77;;;5.15;;
54865;SDS011;40754;52.094;4.328;2023-06-26T01:00:57;14.35;;;4.93;;
54865;SDS011;40754;52.094;4.328;2023-06-26T01:03:23;16.23;;;5.40;;
54865;SDS011;40754;52.094;4.328;2023-06-26T01:05:50;14.05;;;5.30;;
54865;SDS011;40754;52.094;4.328;2023-06-26T01:08:18;17.75;;;5.90;;
54865;SDS011;40754;52.094;4.328;2023-06-26T01:10:44;16.60;;;5.43;;
54865;SDS011;40754;52.094;4.328;2023-06-26T01:13:11;22.33;;;6.07;;
54865;SDS011;40754;52.094;4.328;2023-06-26T01:15:38;17.48;;;6.00;;
54865;SDS011;40754;52.094;4.328;2023-06-26T01:18:05;16.40;;;5.75;;
54865;SDS011;40754;52.094;4.328;2023-06-26T01:20:37;23.15;;;6.18;;
54865;SDS011;40754;52.094;4.328;2023-06-26T01:28:33;17.60;;;6.22;;
54865;SDS011;40754;52.094;4.328;2023-06-26T01:31:00;22.13;;;5.63;;
54865;SDS011;40754;52.094;4.328;2023-06-26T01:33:26;20.70;;;6.25;;
54865;SDS011;40754;52.094;4.328;2023-06-26T01:35:55;17.95;;;6.05;;
54865;SDS011;40754;52.094;4.328;2023-06-26T01:38:21;28.27;;;7.10;;
54865;SDS011;40754;52.094;4.328;2023-06-26T01:40:51;27.10;;;6.60;;
54865;SDS011;40754;52.094;4.328;2023-06-26T01:48:39;22.27;;;6.40;;
54865;SDS011;40754;52.094;4.328;2023-06-26T01:51:16;20.38;;;7.30;;
54865;SDS011;40754;52.094;4.328;2023-06-26T01:53:45;21.27;;;6.95;;
54865;SDS011;40754;52.094;4.328;2023-06-26T01:56:13;20.20;;;6.75;;
54865;SDS011;40754;52.094;4.328;2023-06-26T01:58:43;19.52;;;5.68;;
54865;SDS011;40754;52.094;4.328;2023-06-26T02:01:11;19.63;;;7.37;;
54865;SDS011;40754;52.094;4.328;2023-06-26T02:03:37;27.48;;;7.13;;
54865;SDS011;40754;52.094;4.328;2023-06-26T02:06:03;23.30;;;6.40;;
54865;SDS011;40754;52.094;4.328;2023-06-26T02:08:28;26.50;;;6.82;;
54865;SDS011;40754;52.094;4.328;2023-06-26T02:10:54;24.77;;;7.07;;
54865;SDS011;40754;52.094;4.328;2023-06-26T02:13:19;23.38;;;7.57;;
54865;SDS011;40754;52.094;4.328;2023-06-26T02:15:45;25.17;;;6.75;;
54865;SDS011;40754;52.094;4.328;2023-06-26T02:18:10;26.70;;;7.03;;
54865;SDS011;40754;52.094;4.328;2023-06-26T02:20:36;20.27;;;6.72;;
54865;SDS011;40754;52.094;4.328;2023-06-26T02:23:01;29.02;;;7.38;;
54865;SDS011;40754;52.094;4.328;2023-06-26T02:25:30;23.75;;;6.70;;
54865;SDS011;40754;52.094;4.328;2023-06-26T02:27:55;23.30;;;7.07;;
54865;SDS011;40754;52.094;4.328;2023-06-26T02:30:21;37.47;;;7.70;;
54865;SDS011;40754;52.094;4.328;2023-06-26T02:32:47;24.45;;;7.43;;
54865;SDS011;40754;52.094;4.328;2023-06-26T02:35:12;26.27;;;7.13;;
54865;SDS011;40754;52.094;4.328;2023-06-26T02:37:41;33.35;;;7.75;;
54865;SDS011;40754;52.094;4.328;2023-06-26T02:40:07;26.45;;;6.93;;
54865;SDS011;40754;52.094;4.328;2023-06-26T02:42:34;24.60;;;7.82;;
54865;SDS011;40754;52.094;4.328;2023-06-26T02:45:00;24.52;;;7.30;;
54865;SDS011;40754;52.094;4.328;2023-06-26T02:47:26;30.30;;;6.53;;
54865;SDS011;40754;52.094;4.328;2023-06-26T02:49:51;29.10;;;7.75;;
54865;SDS011;40754;52.094;4.328;2023-06-26T02:52:17;19.10;;;6.68;;
54865;SDS011;40754;52.094;4.328;2023-06-26T02:54:44;28.23;;;7.40;;
54865;SDS011;40754;52.094;4.328;2023-06-26T02:57:09;27.05;;;7.78;;
54865;SDS011;40754;52.094;4.328;2023-06-26T02:59:35;17.33;;;6.43;;
54865;SDS011;40754;52.094;4.328;2023-06-26T03:02:00;24.13;;;6.40;;
54865;SDS011;40754;52.094;4.328;2023-06-26T03:04:26;20.63;;;6.80;;
54865;SDS011;40754;52.094;4.328;2023-06-26T03:06:51;19.42;;;6.47;;
54865;SDS011;40754;52.094;4.328;2023-06-26T03:09:17;21.35;;;6.80;;
54865;SDS011;40754;52.094;4.328;2023-06-26T03:11:43;17.10;;;6.05;;
54865;SDS011;40754;52.094;4.328;2023-06-26T03:14:08;19.70;;;5.70;;
54865;SDS011;40754;52.094;4.328;2023-06-26T03:16:34;18.17;;;5.80;;
54865;SDS011;40754;52.094;4.328;2023-06-26T03:18:59;19.55;;;6.95;;
54865;SDS011;40754;52.094;4.328;2023-06-26T03:21:25;21.63;;;7.00;;
54865;SDS011;40754;52.094;4.328;2023-06-26T03:23:50;17.08;;;5.97;;
54865;SDS011;40754;52.094;4.328;2023-06-26T03:26:16;15.00;;;5.47;;
54865;SDS011;40754;52.094;4.328;2023-06-26T03:28:41;19.95;;;6.50;;
54865;SDS011;40754;52.094;4.328;2023-06-26T03:31:09;17.20;;;5.85;;
54865;SDS011;40754;52.094;4.328;2023-06-26T03:33:35;24.58;;;5.80;;
54865;SDS011;40754;52.094;4.328;2023-06-26T03:36:02;15.07;;;5.85;;
54865;SDS011;40754;52.094;4.328;2023-06-26T03:38:28;12.75;;;4.95;;
54865;SDS011;40754;52.094;4.328;2023-06-26T03:40:53;15.85;;;5.32;;
54865;SDS011;40754;52.094;4.328;2023-06-26T03:43:19;20.20;;;6.28;;
54865;SDS011;40754;52.094;4.328;2023-06-26T03:45:44;20.23;;;5.55;;
54865;SDS011;40754;52.094;4.328;2023-06-26T03:48:11;14.75;;;4.78;;
54865;SDS011;40754;52.094;4.328;2023-06-26T03:50:36;19.73;;;4.90;;
54865;SDS011;40754;52.094;4.328;2023-06-26T03:53:02;17.23;;;5.20;;
54865;SDS011;40754;52.094;4.328;2023-06-26T03:55:27;16.17;;;5.95;;
54865;SDS011;40754;52.094;4.328;2023-06-26T03:57:53;12.43;;;4.88;;
54865;SDS011;40754;52.094;4.328;2023-06-26T04:00:18;12.00;;;5.90;;
54865;SDS011;40754;52.094;4.328;2023-06-26T04:02:44;17.30;;;5.03;;
54865;SDS011;40754;52.094;4.328;2023-06-26T04:05:09;16.05;;;5.07;;
54865;SDS011;40754;52.094;4.328;2023-06-26T04:07:37;13.48;;;4.95;;
54865;SDS011;40754;52.094;4.328;2023-06-26T04:10:02;11.43;;;4.85;;
54865;SDS011;40754;52.094;4.328;2023-06-26T04:12:28;11.90;;;4.93;;
54865;SDS011;40754;52.094;4.328;2023-06-26T04:14:54;9.80;;;4.47;;
54865;SDS011;40754;52.094;4.328;2023-06-26T04:17:19;12.05;;;4.45;;
54865;SDS011;40754;52.094;4.328;2023-06-26T04:19:45;14.23;;;4.75;;
54865;SDS011;40754;52.094;4.328;2023-06-26T04:22:11;12.63;;;4.28;;
54865;SDS011;40754;52.094;4.328;2023-06-26T04:24:36;16.67;;;5.53;;
54865;SDS011;40754;52.094;4.328;2023-06-26T04:27:02;10.98;;;4.70;;
54865;SDS011;40754;52.094;4.328;2023-06-26T04:29:28;11.55;;;4.72;;
54865;SDS011;40754;52.094;4.328;2023-06-26T04:31:53;11.82;;;4.47;;
54865;SDS011;40754;52.094;4.328;2023-06-26T04:34:28;13.38;;;4.78;;
54865;SDS011;40754;52.094;4.328;2023-06-26T04:36:57;9.68;;;4.13;;
54865;SDS011;40754;52.094;4.328;2023-06-26T04:39:23;14.80;;;4.65;;
54865;SDS011;40754;52.094;4.328;2023-06-26T04:41:48;12.32;;;4.95;;
54865;SDS011;40754;52.094;4.328;2023-06-26T04:44:14;10.35;;;4.75;;
54865;SDS011;40754;52.094;4.328;2023-06-26T04:46:40;11.20;;;4.68;;
54865;SDS011;40754;52.094;4.328;2023-06-26T04:49:08;8.90;;;4.45;;
54865;SDS011;40754;52.094;4.328;2023-06-26T04:51:34;12.25;;;4.05;;
54865;SDS011;40754;52.094;4.328;2023-06-26T04:54:05;10.65;;;4.40;;
54865;SDS011;40754;52.094;4.328;2023-06-26T04:56:33;7.15;;;4.03;;
54865;SDS011;40754;52.094;4.328;2023-06-26T04:59:02;10.95;;;4.45;;
54865;SDS011;40754;52.094;4.328;2023-06-26T05:01:28;10.20;;;4.22;;
54865;SDS011;40754;52.094;4.328;2023-06-26T05:04:03;9.85;;;4.68;;
54865;SDS011;40754;52.094;4.328;2023-06-26T05:06:29;15.18;;;4.07;;
54865;SDS011;40754;52.094;4.328;2023-06-26T05:08:54;9.85;;;3.97;;
54865;SDS011;40754;52.094;4.328;2023-06-26T05:11:20;11.48;;;3.60;;
54865;SDS011;40754;52.094;4.328;2023-06-26T05:13:45;9.57;;;4.10;;
54865;SDS011;40754;52.094;4.328;2023-06-26T05:16:14;10.95;;;3.80;;
54865;SDS011;40754;52.094;4.328;2023-06-26T05:18:39;8.73;;;3.53;;
54865;SDS011;40754;52.094;4.328;2023-06-26T05:21:05;15.88;;;3.75;;
54865;SDS011;40754;52.094;4.328;2023-06-26T05:23:32;9.52;;;3.40;;
54865;SDS011;40754;52.094;4.328;2023-06-26T05:25:59;11.48;;;3.42;;
54865;SDS011;40754;52.094;4.328;2023-06-26T05:28:28;11.20;;;3.00;;
54865;SDS011;40754;52.094;4.328;2023-06-26T05:30:56;12.10;;;2.92;;
54865;SDS011;40754;52.094;4.328;2023-06-26T05:33:23;9.85;;;2.60;;
54865;SDS011;40754;52.094;4.328;2023-06-26T05:35:50;14.13;;;2.95;;
54865;SDS011;40754;52.094;4.328;2023-06-26T05:38:17;11.23;;;2.65;;
54865;SDS011;40754;52.094;4.328;2023-06-26T05:40:43;11.98;;;2.53;;
54865;SDS011;40754;52.094;4.328;2023-06-26T05:43:08;10.98;;;2.72;;
54865;SDS011;40754;52.094;4.328;2023-06-26T05:45:34;14.05;;;2.40;;
54865;SDS011;40754;52.094;4.328;2023-06-26T05:48:00;16.27;;;2.90;;
54865;SDS011;40754;52.094;4.328;2023-06-26T05:50:25;14.50;;;2.67;;
54865;SDS011;40754;52.094;4.328;2023-06-26T05:52:51;11.43;;;2.53;;
54865;SDS011;40754;52.094;4.328;2023-06-26T05:55:17;14.43;;;2.30;;
54865;SDS011;40754;52.094;4.328;2023-06-26T05:57:43;9.07;;;2.38;;
54865;SDS011;40754;52.094;4.328;2023-06-26T06:00:11;11.85;;;2.38;;
54865;SDS011;40754;52.094;4.328;2023-06-26T06:02:37;9.88;;;2.25;;
54865;SDS011;40754;52.094;4.328;2023-06-26T06:05:03;15.30;;;2.40;;
54865;SDS011;40754;52.094;4.328;2023-06-26T06:07:28;12.82;;;2.30;;
54865;SDS011;40754;52.094;4.328;2023-06-26T06:09:54;15.75;;;2.88;;
54865;SDS011;40754;52.094;4.328;2023-06-26T06:12:19;14.85;;;2.40;;
54865;SDS011;40754;52.094;4.328;2023-06-26T06:14:45;9.45;;;2.30;;
54865;SDS011;40754;52.094;4.328;2023-06-26T06:17:11;15.57;;;3.05;;
54865;SDS011;40754;52.094;4.328;2023-06-26T06:19:36;8.82;;;2.22;;
54865;SDS011;40754;52.094;4.328;2023-06-26T06:22:02;22.55;;;2.92;;
54865;SDS011;40754;52.094;4.328;2023-06-26T06:24:28;9.13;;;2.42;;
54865;SDS011;40754;52.094;4.328;2023-06-26T06:26:53;13.02;;;2.58;;
54865;SDS011;40754;52.094;4.328;2023-06-26T06:29:19;8.95;;;2.50;;
54865;SDS011;40754;52.094;4.328;2023-06-26T06:31:44;8.13;;;2.40;;
54865;SDS011;40754;52.094;4.328;2023-06-26T06:34:10;8.38;;;2.08;;
54865;SDS011;40754;52.094;4.328;2023-06-26T06:36:36;8.27;;;2.33;;
54865;SDS011;40754;52.094;4.328;2023-06-26T06:39:02;8.98;;;2.40;;
54865;SDS011;40754;52.094;4.328;2023-06-26T06:41:28;9.15;;;2.17;;
54865;SDS011;40754;52.094;4.328;2023-06-26T06:43:54;10.85;;;2.05;;
54865;SDS011;40754;52.094;4.328;2023-06-26T06:46:19;9.73;;;2.85;;
54865;SDS011;40754;52.094;4.328;2023-06-26T06:48:45;15.07;;;3.20;;
54865;SDS011;40754;52.094;4.328;2023-06-26T06:51:12;11.27;;;2.60;;
54865;SDS011;40754;52.094;4.328;2023-06-26T06:53:37;7.68;;;2.00;;
54865;SDS011;40754;52.094;4.328;2023-06-26T06:56:03;9.18;;;2.88;;
54865;SDS011;40754;52.094;4.328;2023-06-26T06:58:29;16.42;;;2.78;;
54865;SDS011;40754;52.094;4.328;2023-06-26T07:00:59;14.60;;;2.95;;
54865;SDS011;40754;52.094;4.328;2023-06-26T07:03:25;18.70;;;2.53;;
54865;SDS011;40754;52.094;4.328;2023-06-26T07:05:50;5.65;;;2.10;;
54865;SDS011;40754;52.094;4.328;2023-06-26T07:08:16;12.38;;;2.80;;
54865;SDS011;40754;52.094;4.328;2023-06-26T07:10:41;7.22;;;2.30;;
54865;SDS011;40754;52.094;4.328;2023-06-26T07:13:07;13.38;;;3.10;;
54865;SDS011;40754;52.094;4.328;2023-06-26T07:15:32;10.90;;;2.75;;
54865;SDS011;40754;52.094;4.328;2023-06-26T07:17:57;11.35;;;2.42;;
54865;SDS011;40754;52.094;4.328;2023-06-26T07:20:23;7.57;;;2.13;;
54865;SDS011;40754;52.094;4.328;2023-06-26T07:22:49;14.32;;;2.63;;
54865;SDS011;40754;52.094;4.328;2023-06-26T07:25:15;15.02;;;2.75;;
54865;SDS011;40754;52.094;4.328;2023-06-26T07:27:41;10.73;;;2.97;;
54865;SDS011;40754;52.094;4.328;2023-06-26T07:30:08;8.93;;;2.40;;
54865;SDS011;40754;52.094;4.328;2023-06-26T07:32:34;12.18;;;2.10;;
54865;SDS011;40754;52.094;4.328;2023-06-26T07:35:00;10.05;;;2.47;;
54865;SDS011;40754;52.094;4.328;2023-06-26T07:37:26;7.90;;;2.20;;
54865;SDS011;40754;52.094;4.328;2023-06-26T07:39:51;6.20;;;2.13;;
54865;SDS011;40754;52.094;4.328;2023-06-26T07:42:17;9.13;;;2.42;;
54865;SDS011;40754;52.094;4.328;2023-06-26T07:44:43;7.57;;;2.17;;
54865;SDS011;40754;52.094;4.328;2023-06-26T07:47:08;11.25;;;2.88;;
54865;SDS011;40754;52.094;4.328;2023-06-26T07:49:34;9.07;;;2.72;;
54865;SDS011;40754;52.094;4.328;2023-06-26T07:52:03;6.45;;;2.22;;
54865;SDS011;40754;52.094;4.328;2023-06-26T07:54:29;15.05;;;2.88;;
54865;SDS011;40754;52.094;4.328;2023-06-26T07:56:55;9.73;;;2.13;;
54865;SDS011;40754;52.094;4.328;2023-06-26T07:59:22;8.52;;;2.25;;
54865;SDS011;40754;52.094;4.328;2023-06-26T08:01:55;8.95;;;2.33;;
54865;SDS011;40754;52.094;4.328;2023-06-26T08:04:30;10.63;;;2.70;;
54865;SDS011;40754;52.094;4.328;2023-06-26T08:06:57;8.90;;;2.17;;
54865;SDS011;40754;52.094;4.328;2023-06-26T08:09:27;9.73;;;2.92;;
54865;SDS011;40754;52.094;4.328;2023-06-26T08:11:54;10.60;;;2.45;;
54865;SDS011;40754;52.094;4.328;2023-06-26T08:14:19;8.63;;;2.30;;
54865;SDS011;40754;52.094;4.328;2023-06-26T08:16:45;9.95;;;2.42;;
54865;SDS011;40754;52.094;4.328;2023-06-26T08:19:12;7.15;;;2.17;;
54865;SDS011;40754;52.094;4.328;2023-06-26T08:21:38;7.10;;;2.40;;
54865;SDS011;40754;52.094;4.328;2023-06-26T08:24:08;12.70;;;2.40;;
54865;SDS011;40754;52.094;4.328;2023-06-26T08:26:34;9.63;;;2.03;;
54865;SDS011;40754;52.094;4.328;2023-06-26T08:29:12;10.88;;;2.58;;
54865;SDS011;40754;52.094;4.328;2023-06-26T08:31:41;8.30;;;2.33;;
54865;SDS011;40754;52.094;4.328;2023-06-26T08:34:07;10.98;;;2.55;;
54865;SDS011;40754;52.094;4.328;2023-06-26T08:36:33;9.90;;;2.40;;
54865;SDS011;40754;52.094;4.328;2023-06-26T08:38:59;9.38;;;2.95;;
54865;SDS011;40754;52.094;4.328;2023-06-26T08:41:29;11.93;;;2.58;;
54865;SDS011;40754;52.094;4.328;2023-06-26T08:44:04;13.90;;;2.65;;
54865;SDS011;40754;52.094;4.328;2023-06-26T08:46:37;12.32;;;2.53;;
54865;SDS011;40754;52.094;4.328;2023-06-26T08:49:14;15.35;;;3.00;;
54865;SDS011;40754;52.094;4.328;2023-06-26T08:52:00;15.95;;;;;
54865;SDS011;40754;52.094;4.328;2023-06-26T08:54:36;13.75;;;3.25;;
54865;SDS011;40754;52.094;4.328;2023-06-26T08:57:14;11.32;;;2.78;;
54865;SDS011;40754;52.094;4.328;2023-06-26T08:59:52;13.75;;;2.67;;
54865;SDS011;40754;52.094;4.328;2023-06-26T09:02:19;6.80;;;2.50;;
54865;SDS011;40754;52.094;4.328;2023-06-26T09:04:48;7.07;;;2.40;;
54865;SDS011;40754;52.094;4.328;2023-06-26T09:07:23;10.88;;;2.20;;
54865;SDS011;40754;52.094;4.328;2023-06-26T09:09:58;14.02;;;2.90;;
54865;SDS011;40754;52.094;4.328;2023-06-26T09:12:30;11.98;;;3.03;;
54865;SDS011;40754;52.094;4.328;2023-06-26T09:14:56;11.15;;;2.45;;
54865;SDS011;40754;52.094;4.328;2023-06-26T09:17:30;11.13;;;2.53;;
54865;SDS011;40754;52.094;4.328;2023-06-26T09:19:58;11.88;;;2.90;;
54865;SDS011;40754;52.094;4.328;2023-06-26T09:22:23;14.68;;;2.42;;
54865;SDS011;40754;52.094;4.328;2023-06-26T09:24:50;10.50;;;2.70;;
54865;SDS011;40754;52.094;4.328;2023-06-26T09:30:20;7.22;;;2.88;;
54865;SDS011;40754;52.094;4.328;2023-06-26T09:32:46;7.90;;;2.20;;
54865;SDS011;40754;52.094;4.328;2023-06-26T09:35:12;8.15;;;2.70;;
54865;SDS011;40754;52.094;4.328;2023-06-26T09:37:37;7.47;;;2.50;;
54865;SDS011;40754;52.094;4.328;2023-06-26T09:40:04;4.95;;;2.08;;
54865;SDS011;40754;52.094;4.328;2023-06-26T09:42:36;9.32;;;2.00;;
54865;SDS011;40754;52.094;4.328;2023-06-26T09:45:02;8.82;;;2.03;;
54865;SDS011;40754;52.094;4.328;2023-06-26T09:47:31;6.45;;;1.98;;
54865;SDS011;40754;52.094;4.328;2023-06-26T09:49:57;8.90;;;2.45;;
54865;SDS011;40754;52.094;4.328;2023-06-26T09:52:26;11.45;;;2.33;;
54865;SDS011;40754;52.094;4.328;2023-06-26T09:55:09;8.13;;;2.58;;
54865;SDS011;40754;52.094;4.328;2023-06-26T09:57:35;11.43;;;2.60;;
54865;SDS011;40754;52.094;4.328;2023-06-26T10:00:07;12.65;;;2.30;;
54865;SDS011;40754;52.094;4.328;2023-06-26T10:05:00;7.50;;;2.05;;
54865;SDS011;40754;52.094;4.328;2023-06-26T10:07:25;9.18;;;2.00;;
54865;SDS011;40754;52.094;4.328;2023-06-26T10:09:51;16.58;;;3.00;;
54865;SDS011;40754;52.094;4.328;2023-06-26T10:12:23;5.75;;;1.90;;
54865;SDS011;40754;52.094;4.328;2023-06-26T10:14:53;9.82;;;2.42;;
54865;SDS011;40754;52.094;4.328;2023-06-26T10:17:22;8.27;;;2.00;;
54865;SDS011;40754;52.094;4.328;2023-06-26T10:19:50;12.20;;;2.42;;
54865;SDS011;40754;52.094;4.328;2023-06-26T10:22:20;9.52;;;1.98;;
54865;SDS011;40754;52.094;4.328;2023-06-26T10:24:45;14.77;;;2.65;;
54865;SDS011;40754;52.094;4.328;2023-06-26T10:29:47;6.55;;;2.45;;
54865;SDS011;40754;52.094;4.328;2023-06-26T10:32:20;9.90;;;2.50;;
54865;SDS011;40754;52.094;4.328;2023-06-26T10:34:46;7.30;;;2.28;;
54865;SDS011;40754;52.094;4.328;2023-06-26T10:37:12;9.93;;;2.30;;
54865;SDS011;40754;52.094;4.328;2023-06-26T10:39:47;9.02;;;2.22;;
54865;SDS011;40754;52.094;4.328;2023-06-26T10:42:20;11.85;;;2.65;;
54865;SDS011;40754;52.094;4.328;2023-06-26T10:45:08;4.60;;;2.13;;
54865;SDS011;40754;52.094;4.328;2023-06-26T10:47:54;5.03;;;1.90;;
54865;SDS011;40754;52.094;4.328;2023-06-26T10:50:23;8.38;;;2.03;;
54865;SDS011;40754;52.094;4.328;2023-06-26T10:55:43;6.60;;;2.45;;
54865;SDS011;40754;52.094;4.328;2023-06-26T11:04:01;6.50;;;2.33;;
54865;SDS011;40754;52.094;4.328;2023-06-26T11:06:30;8.55;;;2.65;;
54865;SDS011;40754;52.094;4.328;2023-06-26T11:09:06;6.70;;;2.65;;
54865;SDS011;40754;52.094;4.328;2023-06-26T11:14:17;6.47;;;2.10;;
54865;SDS011;40754;52.094;4.328;2023-06-26T11:16:43;9.02;;;2.35;;
54865;SDS011;40754;52.094;4.328;2023-06-26T11:19:13;8.52;;;2.30;;
54865;SDS011;40754;52.094;4.328;2023-06-26T11:21:39;8.00;;;2.40;;
54865;SDS011;40754;52.094;4.328;2023-06-26T11:24:08;10.57;;;2.50;;
54865;SDS011;40754;52.094;4.328;2023-06-26T11:26:38;8.82;;;2.22;;
54865;SDS011;40754;52.094;4.328;2023-06-26T11:29:04;7.03;;;2.20;;
54865;SDS011;40754;52.094;4.328;2023-06-26T11:31:34;5.65;;;2.00;;
54865;SDS011;40754;52.094;4.328;2023-06-26T11:36:30;5.90;;;1.90;;
54865;SDS011;40754;52.094;4.328;2023-06-26T11:38:56;9.55;;;2.50;;
54865;SDS011;40754;52.094;4.328;2023-06-26T11:41:24;8.52;;;2.10;;
54865;SDS011;40754;52.094;4.328;2023-06-26T11:43:51;5.30;;;2.08;;
54865;SDS011;40754;52.094;4.328;2023-06-26T11:46:17;6.45;;;2.00;;
54865;SDS011;40754;52.094;4.328;2023-06-26T11:48:46;4.35;;;2.22;;
54865;SDS011;40754;52.094;4.328;2023-06-26T11:51:13;6.20;;;2.30;;
54865;SDS011;40754;52.094;4.328;2023-06-26T11:53:40;6.10;;;2.00;;
54865;SDS011;40754;52.094;4.328;2023-06-26T11:56:07;10.60;;;2.58;;
54865;SDS011;40754;52.094;4.328;2023-06-26T11:58:36;7.38;;;2.35;;
54865;SDS011;40754;52.094;4.328;2023-06-26T12:01:02;5.97;;;2.28;;
54865;SDS011;40754;52.094;4.328;2023-06-26T12:03:28;9.70;;;2.30;;
54865;SDS011;40754;52.094;4.328;2023-06-26T12:05:54;10.57;;;2.63;;
54865;SDS011;40754;52.094;4.328;2023-06-26T12:08:20;5.93;;;1.83;;
54865;SDS011;40754;52.094;4.328;2023-06-26T12:10:46;7.28;;;2.03;;
54865;SDS011;40754;52.094;4.328;2023-06-26T12:13:12;5.60;;;2.25;;
54865;SDS011;40754;52.094;4.328;2023-06-26T12:15:37;6.90;;;2.00;;
54865;SDS011;40754;52.094;4.328;2023-06-26T12:18:12;5.43;;;2.00;;
54865;SDS011;40754;52.094;4.328;2023-06-26T12:20:39;11.35;;;2.17;;
54865;SDS011;40754;52.094;4.328;2023-06-26T12:23:11;14.52;;;2.40;;
54865;SDS011;40754;52.094;4.328;2023-06-26T12:25:37;10.98;;;2.35;;
54865;SDS011;40754;52.094;4.328;2023-06-26T12:28:03;10.10;;;2.38;;
54865;SDS011;40754;52.094;4.328;2023-06-26T12:30:28;5.93;;;2.10;;
54865;SDS011;40754;52.094;4.328;2023-06-26T12:32:54;6.20;;;2.15;;
54865;SDS011;40754;52.094;4.328;2023-06-26T12:35:21;6.32;;;2.17;;
54865;SDS011;40754;52.094;4.328;2023-06-26T12:37:46;6.40;;;2.40;;
54865;SDS011;40754;52.094;4.328;2023-06-26T12:40:18;8.70;;;2.42;;
54865;SDS011;40754;52.094;4.328;2023-06-26T12:42:47;9.00;;;2.58;;
54865;SDS011;40754;52.094;4.328;2023-06-26T12:45:12;8.10;;;2.38;;
54865;SDS011;40754;52.094;4.328;2023-06-26T12:47:39;7.25;;;2.22;;
54865;SDS011;40754;52.094;4.328;2023-06-26T12:50:11;6.95;;;2.15;;
54865;SDS011;40754;52.094;4.328;2023-06-26T12:52:37;9.25;;;2.13;;
54865;SDS011;40754;52.094;4.328;2023-06-26T12:55:03;10.02;;;2.38;;
54865;SDS011;40754;52.094;4.328;2023-06-26T12:57:33;7.07;;;2.22;;
54865;SDS011;40754;52.094;4.328;2023-06-26T12:59:59;9.57;;;2.40;;
54865;SDS011;40754;52.094;4.328;2023-06-26T13:02:26;8.18;;;2.40;;
54865;SDS011;40754;52.094;4.328;2023-06-26T13:04:51;9.45;;;2.13;;
54865;SDS011;40754;52.094;4.328;2023-06-26T13:07:17;6.53;;;2.08;;
54865;SDS011;40754;52.094;4.328;2023-06-26T13:09:43;9.70;;;2.45;;
54865;SDS011;40754;52.094;4.328;2023-06-26T13:12:10;6.55;;;2.33;;
54865;SDS011;40754;52.094;4.328;2023-06-26T13:14:38;7.63;;;2.40;;
54865;SDS011;40754;52.094;4.328;2023-06-26T13:17:04;7.40;;;2.42;;
54865;SDS011;40754;52.094;4.328;2023-06-26T13:19:30;4.72;;;1.92;;
54865;SDS011;40754;52.094;4.328;2023-06-26T13:21:56;6.90;;;2.35;;
54865;SDS011;40754;52.094;4.328;2023-06-26T13:24:25;8.35;;;2.03;;
54865;SDS011;40754;52.094;4.328;2023-06-26T13:26:54;6.22;;;2.20;;
54865;SDS011;40754;52.094;4.328;2023-06-26T13:29:19;6.97;;;2.88;;
54865;SDS011;40754;52.094;4.328;2023-06-26T13:31:45;5.35;;;1.83;;
54865;SDS011;40754;52.094;4.328;2023-06-26T13:34:19;4.75;;;2.00;;
54865;SDS011;40754;52.094;4.328;2023-06-26T13:36:52;8.32;;;1.88;;
54865;SDS011;40754;52.094;4.328;2023-06-26T13:39:19;7.75;;;2.15;;
54865;SDS011;40754;52.094;4.328;2023-06-26T13:41:45;7.47;;;2.05;;
54865;SDS011;40754;52.094;4.328;2023-06-26T13:44:11;4.70;;;1.48;;
54865;SDS011;40754;52.094;4.328;2023-06-26T13:46:36;6.72;;;2.10;;
54865;SDS011;40754;52.094;4.328;2023-06-26T13:49:02;4.25;;;1.70;;
54865;SDS011;40754;52.094;4.328;2023-06-26T13:51:27;4.47;;;1.83;;
54865;SDS011;40754;52.094;4.328;2023-06-26T13:53:53;6.38;;;1.90;;
54865;SDS011;40754;52.094;4.328;2023-06-26T13:56:20;7.22;;;2.33;;
54865;SDS011;40754;52.094;4.328;2023-06-26T13:58:47;8.02;;;2.08;;
54865;SDS011;40754;52.094;4.328;2023-06-26T14:01:13;5.75;;;1.90;;
54865;SDS011;40754;52.094;4.328;2023-06-26T14:03:38;7.97;;;2.10;;
54865;SDS011;40754;52.094;4.328;2023-06-26T14:06:04;4.82;;;1.85;;
54865;SDS011;40754;52.094;4.328;2023-06-26T14:08:29;7.18;;;2.33;;
54865;SDS011;40754;52.094;4.328;2023-06-26T14:10:55;4.95;;;1.75;;
54865;SDS011;40754;52.094;4.328;2023-06-26T14:13:21;7.10;;;1.92;;
54865;SDS011;40754;52.094;4.328;2023-06-26T14:15:46;5.47;;;1.70;;
54865;SDS011;40754;52.094;4.328;2023-06-26T14:18:12;5.22;;;2.15;;
54865;SDS011;40754;52.094;4.328;2023-06-26T14:20:37;5.50;;;1.90;;
54865;SDS011;40754;52.094;4.328;2023-06-26T14:23:03;8.70;;;2.10;;
54865;SDS011;40754;52.094;4.328;2023-06-26T14:25:29;6.32;;;1.95;;
54865;SDS011;40754;52.094;4.328;2023-06-26T14:27:55;7.40;;;1.80;;
54865;SDS011;40754;52.094;4.328;2023-06-26T14:30:21;6.95;;;1.90;;
54865;SDS011;40754;52.094;4.328;2023-06-26T14:32:46;7.65;;;1.98;;
54865;SDS011;40754;52.094;4.328;2023-06-26T14:35:11;6.45;;;1.60;;
54865;SDS011;40754;52.094;4.328;2023-06-26T14:37:37;5.40;;;1.83;;
54865;SDS011;40754;52.094;4.328;2023-06-26T14:40:05;5.68;;;1.60;;
54865;SDS011;40754;52.094;4.328;2023-06-26T14:42:36;4.25;;;1.77;;
54865;SDS011;40754;52.094;4.328;2023-06-26T14:45:01;7.00;;;1.85;;
54865;SDS011;40754;52.094;4.328;2023-06-26T14:47:28;6.15;;;1.80;;
54865;SDS011;40754;52.094;4.328;2023-06-26T14:49:53;5.00;;;1.90;;
54865;SDS011;40754;52.094;4.328;2023-06-26T14:52:19;4.28;;;2.00;;
54865;SDS011;40754;52.094;4.328;2023-06-26T14:54:44;5.57;;;1.85;;
54865;SDS011;40754;52.094;4.328;2023-06-26T14:57:10;6.13;;;1.73;;
54865;SDS011;40754;52.094;4.328;2023-06-26T14:59:35;9.50;;;2.30;;
54865;SDS011;40754;52.094;4.328;2023-06-26T15:02:01;8.55;;;1.75;;
54865;SDS011;40754;52.094;4.328;2023-06-26T15:04:27;3.60;;;1.75;;
54865;SDS011;40754;52.094;4.328;2023-06-26T15:06:56;6.85;;;1.50;;
54865;SDS011;40754;52.094;4.328;2023-06-26T15:09:22;7.22;;;2.00;;
54865;SDS011;40754;52.094;4.328;2023-06-26T15:11:48;8.93;;;2.15;;
54865;SDS011;40754;52.094;4.328;2023-06-26T15:14:14;4.57;;;1.90;;